Time;durP1;ratioP1;P1;durP2;ratioP2;P2;SDS_P1;SDS_P2;PMS_P1;PMS_P2;Temp;Humidity;BMP_temperature;BMP_pressure;BME280_temperature;BME280_humidity;BME280_pressure;Samples;Min_cycle;Max_cycle;Signal;HPM_P1;HPM_P2
2022/08/12 00:43:43;;;;;;;;;;;17.50;99.90;;;;;;4594468;19;19986;-40
2022/08/12 00:45:13;;;;;;;;;;;17.40;99.90;;;;;;4595081;19;19919;-40
2022/08/12 00:46:51;;;;;;;;;;;17.40;99.90;;;;;;4593749;19;19956;-40
2022/08/12 00:48:22;;;;;;;;;;;17.40;99.90;;;;;;4593944;19;19935;-42
2022/08/12 00:49:54;;;;;;;;;;;17.40;99.90;;;;;;4593309;19;19927;-43
2022/08/12 00:52:04;;;;;;;;;;;17.40;99.90;;;;;;4594795;19;19942;-43
2022/08/12 00:53:19;;;;;;;;;;;17.40;99.90;;;;;;4594749;19;19915;-34
2022/08/12 00:54:50;;;;;;;;;;;17.40;99.90;;;;;;4593377;19;19915;-35
2022/08/12 00:56:21;;;;;;;;;;;17.30;99.90;;;;;;4593756;19;19974;-38
2022/08/12 00:57:52;;;;;;;;;;;17.30;99.90;;;;;;4593296;19;20253;-40
2022/08/12 00:59:23;;;;;;;;;;;17.30;99.90;;;;;;4593616;19;20349;-38
2022/08/12 01:01:01;;;;;;;;;;;17.30;99.90;;;;;;4591635;19;19942;-37
2022/08/12 01:02:33;;;;;;;;;;;17.30;99.90;;;;;;4593926;19;19926;-39
2022/08/12 01:11:31;;;;;;;;;;;17.30;99.90;;;;;;4590814;19;19923;-35
2022/08/12 01:13:02;;;;;;;;;;;17.30;99.90;;;;;;4591240;19;19979;-43
2022/08/12 01:14:33;;;;;;;;;;;17.20;99.90;;;;;;4592652;19;19922;-38
2022/08/12 01:16:05;;;;;;;;;;;17.20;99.90;;;;;;4592882;19;20003;-44
2022/08/12 01:17:37;;;;;;;;;;;17.20;99.90;;;;;;4594328;19;19962;-42
2022/08/12 01:19:08;;;;;;;;;;;17.20;99.90;;;;;;4592428;19;19919;-37
2022/08/12 01:20:42;;;;;;;;;;;17.20;99.90;;;;;;4592166;19;20253;-34
2022/08/12 01:22:13;;;;;;;;;;;17.20;99.90;;;;;;4593310;19;19919;-39
2022/08/12 01:23:45;;;;;;;;;;;17.20;99.90;;;;;;4594192;19;19996;-35
2022/08/12 01:25:17;;;;;;;;;;;17.20;99.90;;;;;;4592375;19;19925;-41
2022/08/12 01:26:48;;;;;;;;;;;17.20;99.90;;;;;;4593534;19;19919;-44
2022/08/12 01:28:19;;;;;;;;;;;17.10;99.90;;;;;;4591701;19;19985;-44
2022/08/12 01:29:51;;;;;;;;;;;17.10;99.90;;;;;;4593323;19;19944;-35
2022/08/12 01:31:22;;;;;;;;;;;17.10;99.90;;;;;;4593777;19;19922;-44
2022/08/12 01:32:53;;;;;;;;;;;17.10;99.90;;;;;;4593709;19;20325;-35
2022/08/12 01:34:27;;;;;;;;;;;17.10;99.90;;;;;;4592666;19;19978;-38
2022/08/12 01:35:59;;;;;;;;;;;17.10;99.90;;;;;;4590492;19;19911;-42
2022/08/12 01:37:32;;;;;;;;;;;17.10;99.90;;;;;;4592357;19;19918;-37
2022/08/12 01:39:03;;;;;;;;;;;17.10;99.90;;;;;;4592097;19;20311;-36
2022/08/12 01:40:36;;;;;;;;;;;17.10;99.90;;;;;;4592647;19;19933;-39
2022/08/12 01:42:08;;;;;;;;;;;17.10;99.90;;;;;;4593079;19;20261;-36
2022/08/12 01:43:39;;;;;;;;;;;17.10;99.90;;;;;;4593285;19;19923;-35
2022/08/12 01:45:11;;;;;;;;;;;17.10;99.90;;;;;;4592588;19;19946;-36
2022/08/12 01:46:55;;;;;;;;;;;17.10;99.90;;;;;;4592374;19;20325;-35
2022/08/12 01:48:34;;;;;;;;;;;17.00;99.90;;;;;;4592221;19;19911;-38
2022/08/12 01:50:08;;;;;;;;;;;17.00;99.90;;;;;;4591645;19;19915;-41
2022/08/12 01:51:39;;;;;;;;;;;17.00;99.90;;;;;;4592436;19;19947;-34
2022/08/12 01:53:12;;;;;;;;;;;17.00;99.90;;;;;;4592285;19;19919;-36
2022/08/12 01:54:43;;;;;;;;;;;17.00;99.90;;;;;;4592699;19;20337;-40
2022/08/12 01:56:14;;;;;;;;;;;17.00;99.90;;;;;;4591976;19;19998;-39
2022/08/12 01:57:46;;;;;;;;;;;17.00;99.90;;;;;;4592160;19;19935;-45
2022/08/12 02:01:13;;;;;;;;;;;17.00;99.90;;;;;;4590034;19;19992;-35
2022/08/12 02:03:09;;;;;;;;;;;17.00;99.90;;;;;;4591070;19;19915;-35
2022/08/12 02:12:56;;;;;;;;;;;16.90;99.90;;;;;;4592819;19;19914;-35
2022/08/12 02:14:41;;;;;;;;;;;16.90;99.90;;;;;;4590314;19;20014;-37
2022/08/12 02:16:21;;;;;;;;;;;16.90;99.90;;;;;;4590878;19;19915;-37
2022/08/12 02:17:55;;;;;;;;;;;16.90;99.90;;;;;;4591156;19;19910;-34
2022/08/12 02:19:45;;;;;;;;;;;16.90;99.90;;;;;;4589847;19;20002;-36
2022/08/12 02:21:18;;;;;;;;;;;16.90;99.90;;;;;;4590590;19;20265;-37
2022/08/12 02:22:49;;;;;;;;;;;16.90;99.90;;;;;;4590479;19;19935;-41
2022/08/12 02:24:20;;;;;;;;;;;16.90;99.90;;;;;;4590883;19;19910;-38
2022/08/12 02:25:54;;;;;;;;;;;17.00;99.90;;;;;;4590089;19;19952;-34
2022/08/12 02:27:26;;;;;;;;;;;16.90;99.90;;;;;;4590149;19;20343;-41
2022/08/12 02:28:58;;;;;;;;;;;16.90;99.90;;;;;;4590310;19;19914;-37
2022/08/12 02:30:30;;;;;;;;;;;16.90;99.90;;;;;;4589634;19;20321;-37
2022/08/12 02:32:01;;;;;;;;;;;17.00;99.90;;;;;;4590156;19;19923;-34
2022/08/12 02:33:32;;;;;;;;;;;17.00;99.90;;;;;;4590253;19;19936;-35
2022/08/12 02:35:04;;;;;;;;;;;17.00;99.90;;;;;;4590540;19;19919;-35
2022/08/12 02:36:36;;;;;;;;;;;17.00;99.90;;;;;;4590113;19;19979;-36
2022/08/12 02:38:08;;;;;;;;;;;17.00;99.90;;;;;;4590040;19;19915;-34
2022/08/12 02:39:39;;;;;;;;;;;17.00;99.90;;;;;;4590126;19;20313;-41
2022/08/12 02:41:10;;;;;;;;;;;17.10;99.90;;;;;;4590543;19;19936;-43
2022/08/12 02:43:02;;;;;;;;;;;17.10;99.90;;;;;;4590587;19;19918;-36
2022/08/12 02:44:35;;;;;;;;;;;17.10;99.90;;;;;;4589641;19;19943;-37
2022/08/12 02:46:09;;;;;;;;;;;17.10;99.90;;;;;;4589681;19;19914;-34
2022/08/12 02:47:40;;;;;;;;;;;17.10;99.90;;;;;;4589926;19;19937;-34
2022/08/12 02:49:30;;;;;;;;;;;17.10;99.90;;;;;;4589949;19;20334;-39
2022/08/12 02:51:03;;;;;;;;;;;17.10;99.90;;;;;;4588786;19;19922;-35
2022/08/12 02:52:34;;;;;;;;;;;17.10;99.90;;;;;;4588469;19;19922;-35
2022/08/12 02:54:06;;;;;;;;;;;17.10;99.90;;;;;;4589731;19;20283;-35
2022/08/12 02:55:37;;;;;;;;;;;17.10;99.90;;;;;;4588416;19;19978;-33
2022/08/12 02:57:08;;;;;;;;;;;17.10;99.90;;;;;;4588492;19;19919;-38
2022/08/12 02:58:40;;;;;;;;;;;17.10;99.90;;;;;;4589448;19;19919;-37
2022/08/12 03:00:12;;;;;;;;;;;17.10;99.90;;;;;;4589053;19;20290;-33
2022/08/12 03:01:45;;;;;;;;;;;17.10;99.90;;;;;;4589790;19;19918;-37
2022/08/12 03:03:16;;;;;;;;;;;17.10;99.90;;;;;;4589437;19;20334;-40
2022/08/12 03:04:52;;;;;;;;;;;17.10;99.90;;;;;;4589649;19;19923;-37
2022/08/12 03:06:23;;;;;;;;;;;17.10;99.90;;;;;;4588287;19;20332;-38
2022/08/12 03:07:54;;;;;;;;;;;17.10;99.90;;;;;;4589480;19;19918;-41
2022/08/12 03:09:25;;;;;;;;;;;17.10;99.90;;;;;;4589306;19;19939;-35
2022/08/12 03:10:58;;;;;;;;;;;17.10;99.90;;;;;;4588271;19;19978;-36
2022/08/12 03:12:40;;;;;;;;;;;17.10;99.90;;;;;;4589950;19;19939;-41
2022/08/12 03:14:12;;;;;;;;;;;17.10;99.90;;;;;;4589394;19;19918;-35
2022/08/12 03:15:43;;;;;;;;;;;17.10;99.90;;;;;;4589082;19;19915;-35
2022/08/12 03:17:15;;;;;;;;;;;17.10;99.90;;;;;;4589572;19;19974;-39
2022/08/12 03:18:50;;;;;;;;;;;17.10;99.90;;;;;;4589672;19;19930;-43
2022/08/12 03:20:21;;;;;;;;;;;17.10;99.90;;;;;;4589437;19;19918;-44
2022/08/12 03:21:53;;;;;;;;;;;17.10;99.90;;;;;;4589772;19;20249;-42
2022/08/12 03:23:24;;;;;;;;;;;17.10;99.90;;;;;;4591705;19;19922;-38
2022/08/12 03:24:55;;;;;;;;;;;17.10;99.90;;;;;;4591871;19;19911;-38
2022/08/12 03:26:26;;;;;;;;;;;17.10;99.90;;;;;;4590724;19;19918;-38
2022/08/12 03:27:57;;;;;;;;;;;17.10;99.90;;;;;;4590438;19;19922;-34
2022/08/12 03:29:29;;;;;;;;;;;17.10;99.90;;;;;;4590397;19;19985;-34
2022/08/12 03:31:01;;;;;;;;;;;17.10;99.90;;;;;;4590124;19;19970;-36
2022/08/12 03:32:37;;;;;;;;;;;17.10;99.90;;;;;;4591021;19;19915;-40
2022/08/12 03:34:09;;;;;;;;;;;17.00;99.90;;;;;;4589910;19;19917;-39
2022/08/12 03:35:41;;;;;;;;;;;17.10;99.90;;;;;;4591088;19;19922;-38
2022/08/12 03:37:12;;;;;;;;;;;17.00;99.90;;;;;;4591296;19;19914;-34
2022/08/12 03:38:43;;;;;;;;;;;17.00;99.90;;;;;;4589860;19;19919;-39
2022/08/12 03:41:33;;;;;;;;;;;17.00;99.90;;;;;;4590938;19;19914;-38
2022/08/12 03:42:11;;;;;;;;;;;17.00;99.90;;;;;;4591444;19;19919;-42
2022/08/12 04:00:29;;;;;;;;;;;16.90;99.90;;;;;;4590301;19;19915;-42
2022/08/12 04:02:00;;;;;;;;;;;16.90;99.90;;;;;;4590548;19;19911;-42
2022/08/12 04:03:52;;;;;;;;;;;16.90;99.90;;;;;;4592024;19;19915;-36
2022/08/12 04:05:24;;;;;;;;;;;16.90;99.90;;;;;;4589770;19;19921;-45
2022/08/12 04:06:56;;;;;;;;;;;16.90;99.90;;;;;;4587619;19;19923;-36
2022/08/12 04:08:28;;;;;;;;;;;16.90;99.90;;;;;;4590365;19;20285;-34
2022/08/12 04:09:59;;;;;;;;;;;16.90;99.90;;;;;;4588788;19;19984;-37
2022/08/12 04:13:20;;;;;;;;;;;17.00;99.90;;;;;;4588873;19;19919;-39
2022/08/12 04:14:51;;;;;;;;;;;17.00;99.90;;;;;;4588862;19;19914;-36
2022/08/12 04:16:21;;;;;;;;;;;17.00;99.90;;;;;;4589550;19;20226;-35
2022/08/12 04:17:53;;;;;;;;;;;17.00;99.90;;;;;;4589479;19;19930;-42
2022/08/12 04:19:24;;;;;;;;;;;17.00;99.90;;;;;;4590111;19;19911;-43
2022/08/12 04:20:55;;;;;;;;;;;17.10;99.90;;;;;;4589491;19;19914;-40
2022/08/12 04:22:28;;;;;;;;;;;17.10;99.90;;;;;;4589830;19;19917;-37
2022/08/12 04:24:00;;;;;;;;;;;17.10;99.90;;;;;;4590304;19;20340;-34
2022/08/12 04:25:31;;;;;;;;;;;17.10;99.90;;;;;;4590585;19;19926;-42
2022/08/12 04:27:04;;;;;;;;;;;17.10;99.90;;;;;;4589054;19;19960;-38
2022/08/12 04:28:35;;;;;;;;;;;17.10;99.90;;;;;;4589006;19;19932;-36
2022/08/12 04:30:06;;;;;;;;;;;17.10;99.90;;;;;;4589928;19;20392;-35
2022/08/12 04:31:38;;;;;;;;;;;17.10;99.90;;;;;;4588738;19;19982;-35
2022/08/12 04:33:12;;;;;;;;;;;17.20;99.90;;;;;;4589777;19;19919;-38
2022/08/12 04:34:43;;;;;;;;;;;17.20;99.90;;;;;;4590052;19;20325;-38
2022/08/12 04:36:14;;;;;;;;;;;17.20;99.90;;;;;;4589267;19;19978;-42
2022/08/12 04:37:46;;;;;;;;;;;17.20;99.90;;;;;;4590841;19;19925;-34
2022/08/12 04:39:17;;;;;;;;;;;17.20;99.90;;;;;;4590591;19;19926;-34
2022/08/12 04:40:47;;;;;;;;;;;17.20;99.90;;;;;;4589228;19;19922;-35
2022/08/12 04:42:19;;;;;;;;;;;17.30;99.90;;;;;;4587744;19;19919;-34
2022/08/12 04:43:50;;;;;;;;;;;17.30;99.90;;;;;;4590396;19;20273;-34
2022/08/12 04:45:21;;;;;;;;;;;17.30;99.90;;;;;;4589003;19;19926;-37
2022/08/12 04:46:52;;;;;;;;;;;17.30;99.90;;;;;;4588390;19;19925;-41
2022/08/12 04:48:25;;;;;;;;;;;17.30;99.90;;;;;;4589593;19;19967;-36
2022/08/12 04:49:56;;;;;;;;;;;17.30;99.90;;;;;;4593842;19;19925;-42
2022/08/12 04:51:27;;;;;;;;;;;17.40;99.90;;;;;;4593005;19;19922;-36
2022/08/12 04:53:01;;;;;;;;;;;17.40;99.90;;;;;;4595156;19;19923;-40
2022/08/12 04:54:34;;;;;;;;;;;17.40;99.90;;;;;;4594659;19;19991;-41
2022/08/12 04:56:09;;;;;;;;;;;17.50;99.90;;;;;;4593686;19;19919;-35
2022/08/12 04:57:40;;;;;;;;;;;17.50;99.90;;;;;;4593158;19;19919;-40
2022/08/12 04:59:12;;;;;;;;;;;17.50;99.90;;;;;;4593543;19;19942;-35
2022/08/12 05:00:43;;;;;;;;;;;17.60;99.90;;;;;;4592630;19;19970;-35
2022/08/12 05:02:15;;;;;;;;;;;17.60;99.90;;;;;;4591289;19;19915;-43
2022/08/12 05:03:50;;;;;;;;;;;17.60;99.90;;;;;;4592105;19;20253;-34
2022/08/12 05:05:21;;;;;;;;;;;17.60;99.90;;;;;;4591370;19;19918;-39
2022/08/12 05:06:53;;;;;;;;;;;17.60;99.90;;;;;;4591563;19;19915;-35
2022/08/12 05:08:25;;;;;;;;;;;17.60;99.90;;;;;;4592058;19;19919;-34
2022/08/12 05:09:56;;;;;;;;;;;17.60;99.90;;;;;;4594370;19;19966;-38
2022/08/12 05:11:27;;;;;;;;;;;17.60;99.90;;;;;;4594498;19;20370;-34
2022/08/12 05:12:58;;;;;;;;;;;17.60;99.90;;;;;;4593291;19;19919;-40
2022/08/12 05:14:30;;;;;;;;;;;17.60;99.90;;;;;;4593360;19;20317;-39
2022/08/12 05:16:01;;;;;;;;;;;17.60;99.90;;;;;;4592052;19;19970;-39
2022/08/12 05:17:31;;;;;;;;;;;17.70;99.90;;;;;;4592389;19;20258;-37
2022/08/12 05:19:03;;;;;;;;;;;17.70;99.90;;;;;;4592643;19;19974;-36
2022/08/12 05:20:33;;;;;;;;;;;17.70;99.90;;;;;;4592103;19;20350;-39
2022/08/12 05:22:04;;;;;;;;;;;17.70;99.90;;;;;;4591208;19;20336;-35
2022/08/12 05:23:36;;;;;;;;;;;17.80;99.90;;;;;;4594695;19;19919;-40
2022/08/12 05:25:07;;;;;;;;;;;17.70;99.90;;;;;;4594169;19;19919;-34
2022/08/12 05:26:39;;;;;;;;;;;17.70;99.90;;;;;;4594008;19;19910;-35
2022/08/12 05:28:11;;;;;;;;;;;17.70;99.90;;;;;;4593220;19;19923;-35
2022/08/12 05:29:48;;;;;;;;;;;17.70;99.90;;;;;;4593807;19;19923;-34
2022/08/12 05:31:20;;;;;;;;;;;17.70;99.90;;;;;;4593552;19;19928;-35
2022/08/12 05:32:54;;;;;;;;;;;17.70;99.90;;;;;;4593739;19;19942;-32
2022/08/12 05:34:27;;;;;;;;;;;17.70;99.90;;;;;;4591683;19;19919;-35
2022/08/12 05:35:58;;;;;;;;;;;17.80;99.90;;;;;;4593148;19;19985;-37
2022/08/12 05:37:29;;;;;;;;;;;17.80;99.90;;;;;;4592247;19;20249;-33
2022/08/12 05:39:00;;;;;;;;;;;17.90;99.90;;;;;;4593047;19;19917;-34
2022/08/12 05:40:32;;;;;;;;;;;17.90;99.90;;;;;;4593524;19;19914;-36
2022/08/12 05:42:03;;;;;;;;;;;17.90;99.90;;;;;;4594097;19;19910;-33
2022/08/12 05:43:34;;;;;;;;;;;18.00;99.90;;;;;;4593321;19;19982;-37
2022/08/12 05:45:05;;;;;;;;;;;18.00;99.90;;;;;;4592617;19;19919;-35
2022/08/12 05:46:36;;;;;;;;;;;18.10;99.90;;;;;;4592943;19;19919;-33
2022/08/12 05:48:07;;;;;;;;;;;18.10;99.90;;;;;;4593767;19;19917;-32
2022/08/12 05:49:41;;;;;;;;;;;18.10;99.90;;;;;;4593194;19;19922;-35
2022/08/12 05:51:12;;;;;;;;;;;18.10;99.90;;;;;;4591790;19;20035;-33
2022/08/12 05:52:43;;;;;;;;;;;18.20;99.90;;;;;;4591812;19;20420;-39
2022/08/12 05:54:15;;;;;;;;;;;18.20;99.90;;;;;;4591898;19;19918;-33
2022/08/12 05:55:46;;;;;;;;;;;18.20;99.90;;;;;;4592758;19;19917;-33
2022/08/12 05:57:17;;;;;;;;;;;18.20;99.90;;;;;;4591893;19;19918;-32
2022/08/12 05:58:56;;;;;;;;;;;18.30;99.90;;;;;;4592592;19;19919;-33
2022/08/12 06:00:30;;;;;;;;;;;18.30;99.90;;;;;;4592538;19;19922;-37
2022/08/12 06:02:06;;;;;;;;;;;18.30;99.90;;;;;;4592961;19;19914;-33
2022/08/12 06:03:37;;;;;;;;;;;18.40;99.90;;;;;;4592809;19;19926;-33
2022/08/12 06:05:09;;;;;;;;;;;18.40;99.90;;;;;;4593401;19;19911;-35
2022/08/12 06:06:41;;;;;;;;;;;18.40;99.90;;;;;;4592763;19;19915;-35
2022/08/12 06:08:12;;;;;;;;;;;18.50;99.90;;;;;;4593056;19;19927;-33
2022/08/12 06:09:43;;;;;;;;;;;18.50;99.90;;;;;;4593239;19;20313;-33
2022/08/12 06:11:14;;;;;;;;;;;18.50;99.90;;;;;;4591965;19;19915;-33
2022/08/12 06:12:48;;;;;;;;;;;18.50;99.90;;;;;;4592679;19;19923;-33
2022/08/12 06:14:21;;;;;;;;;;;18.50;99.90;;;;;;4593065;19;19986;-39
2022/08/12 06:15:52;;;;;;;;;;;18.50;99.90;;;;;;4593198;19;19914;-33
2022/08/12 06:17:24;;;;;;;;;;;18.60;99.90;;;;;;4592969;19;19923;-33
2022/08/12 06:18:55;;;;;;;;;;;18.60;99.90;;;;;;4592542;19;19935;-39
2022/08/12 06:20:26;;;;;;;;;;;18.60;99.90;;;;;;4591570;19;19982;-33
2022/08/12 06:21:57;;;;;;;;;;;18.60;99.90;;;;;;4592008;19;19910;-39
2022/08/12 06:23:28;;;;;;;;;;;18.70;99.90;;;;;;4592005;19;19918;-33
2022/08/12 06:24:59;;;;;;;;;;;18.70;99.90;;;;;;4592562;19;20355;-34
2022/08/12 06:26:33;;;;;;;;;;;18.70;99.90;;;;;;4592774;19;19915;-40
2022/08/12 06:28:05;;;;;;;;;;;18.70;99.90;;;;;;4592133;19;19981;-35
2022/08/12 06:29:37;;;;;;;;;;;18.80;99.90;;;;;;4591054;19;19922;-35
2022/08/12 06:31:08;;;;;;;;;;;18.80;99.90;;;;;;4590880;19;19915;-38
2022/08/12 06:32:39;;;;;;;;;;;18.80;99.90;;;;;;4592930;19;19923;-42
2022/08/12 06:34:13;;;;;;;;;;;18.90;99.90;;;;;;4592962;19;19934;-38
2022/08/12 06:35:44;;;;;;;;;;;18.90;99.90;;;;;;4592233;19;19911;-33
2022/08/12 06:37:17;;;;;;;;;;;18.90;99.90;;;;;;4592528;19;19992;-33
2022/08/12 06:38:49;;;;;;;;;;;18.90;99.90;;;;;;4592394;19;19998;-33
2022/08/12 06:42:46;;;;;;;4.10;2.88;;;19.00;99.90;;;;;;4591227;19;19918;-39
2022/08/12 06:44:01;;;;;;;3.72;3.00;;;19.00;99.90;;;;;;4590944;19;20475;-39
2022/08/12 06:45:33;;;;;;;3.65;2.72;;;19.10;99.90;;;;;;4591183;19;20013;-34
2022/08/12 06:47:04;;;;;;;5.13;3.08;;;19.10;99.90;;;;;;4591258;19;20048;-39
2022/08/12 06:48:36;;;;;;;5.93;3.83;;;19.10;99.90;;;;;;4591156;19;20321;-38
2022/08/12 06:50:08;;;;;;;4.32;3.30;;;19.10;99.90;;;;;;4589501;19;20025;-33
2022/08/12 06:51:39;;;;;;;4.93;2.95;;;19.10;99.90;;;;;;4589753;19;20090;-33
2022/08/12 06:53:10;;;;;;;4.03;3.00;;;19.10;99.90;;;;;;4591483;19;20111;-36
2022/08/12 06:54:44;;;;;;;4.82;3.38;;;19.10;99.90;;;;;;4590780;19;20467;-42
2022/08/12 06:56:16;;;;;;;5.80;3.10;;;19.20;99.90;;;;;;4591037;19;20096;-39
2022/08/12 06:57:55;;;;;;;4.13;2.85;;;19.20;99.90;;;;;;4591659;19;20010;-34
2022/08/12 06:59:26;;;;;;;3.70;2.70;;;19.30;99.90;;;;;;4589829;19;20383;-42
2022/08/12 07:00:58;;;;;;;3.85;3.10;;;19.30;99.90;;;;;;4589853;19;20006;-38
2022/08/12 07:02:29;;;;;;;4.57;2.85;;;19.30;99.90;;;;;;4590636;19;20356;-32
2022/08/12 07:04:00;;;;;;;4.13;3.00;;;19.30;99.90;;;;;;4590386;19;20040;-31
2022/08/12 07:05:31;;;;;;;4.85;2.92;;;19.30;99.90;;;;;;4591131;19;20021;-36
2022/08/12 07:07:04;;;;;;;4.45;3.05;;;19.40;99.90;;;;;;4590598;19;20014;-38
2022/08/12 07:08:35;;;;;;;4.57;3.13;;;19.40;99.90;;;;;;4591067;19;20495;-41
2022/08/12 07:10:07;;;;;;;3.95;3.20;;;19.40;99.90;;;;;;4590958;19;20014;-36
2022/08/12 07:11:43;;;;;;;4.57;3.53;;;19.40;99.90;;;;;;4589464;19;20016;-39
2022/08/12 07:13:14;;;;;;;4.25;3.35;;;19.50;99.90;;;;;;4590905;19;20017;-34
2022/08/12 07:14:50;;;;;;;4.57;3.47;;;19.50;99.90;;;;;;4591119;19;20014;-34
2022/08/12 07:16:21;;;;;;;4.03;3.17;;;19.50;99.90;;;;;;4589420;19;20007;-34
2022/08/12 07:17:59;;;;;;;3.97;3.20;;;19.60;99.90;;;;;;4589341;19;24472;-40
2022/08/12 07:19:32;;;;;;;3.90;3.20;;;19.50;99.90;;;;;;4589021;19;24373;-34
2022/08/12 07:21:04;;;;;;;4.03;2.90;;;19.60;99.90;;;;;;4589278;19;24389;-42
2022/08/12 07:22:35;;;;;;;4.22;2.92;;;19.60;99.90;;;;;;4588971;19;24381;-44
2022/08/12 07:24:06;;;;;;;3.28;2.63;;;19.70;99.90;;;;;;4590140;19;24388;-34
2022/08/12 07:25:38;;;;;;;3.72;2.75;;;19.70;99.90;;;;;;4589292;19;24377;-33
2022/08/12 07:27:11;;;;;;;3.25;2.83;;;19.80;99.90;;;;;;4589222;19;24708;-34
2022/08/12 07:28:42;;;;;;;3.38;2.72;;;19.80;99.90;;;;;;4588347;19;24385;-36
2022/08/12 07:30:17;;;;;;;3.38;2.47;;;19.80;99.90;;;;;;4587653;19;24393;-38
2022/08/12 07:31:52;;;;;;;4.18;2.70;;;19.80;99.90;;;;;;4587927;19;24381;-41
2022/08/12 07:33:26;;;;;;;3.65;2.90;;;19.80;99.90;;;;;;4588887;19;24561;-34
2022/08/12 07:35:00;;;;;;;4.63;2.77;;;19.90;99.90;;;;;;4588731;19;24436;-36
2022/08/12 07:36:34;;;;;;;3.30;2.70;;;20.00;99.90;;;;;;4587679;19;25075;-35
2022/08/12 07:38:26;;;;;;;4.72;3.35;;;20.00;99.90;;;;;;4587993;19;24448;-40
2022/08/12 07:39:57;;;;;;;4.07;2.50;;;20.00;99.90;;;;;;4586595;19;24440;-36
2022/08/12 07:41:30;;;;;;;3.42;2.50;;;20.00;99.90;;;;;;4588200;19;24411;-34
2022/08/12 07:43:01;;;;;;;3.65;2.55;;;20.00;99.90;;;;;;4589352;19;24381;-33
2022/08/12 07:44:33;;;;;;;3.65;2.75;;;20.00;99.90;;;;;;4588651;19;24689;-34
2022/08/12 07:46:06;;;;;;;7.22;4.28;;;20.00;99.90;;;;;;4589262;19;24373;-42
2022/08/12 07:47:39;;;;;;;6.65;3.83;;;20.00;99.90;;;;;;4587759;19;24373;-34
2022/08/12 07:49:12;;;;;;;4.60;2.83;;;19.90;99.90;;;;;;4589062;19;24781;-32
2022/08/12 07:50:43;;;;;;;4.30;2.63;;;19.90;99.90;;;;;;4587714;19;24419;-33
2022/08/12 07:52:15;;;;;;;2.88;2.30;;;20.00;99.90;;;;;;4585546;19;20742;-36
2022/08/12 07:53:47;;;;;;;3.03;2.40;;;20.00;99.90;;;;;;4586412;19;24361;-37
2022/08/12 07:55:18;;;;;;;3.17;2.40;;;20.10;99.90;;;;;;4587265;19;24441;-41
2022/08/12 07:56:50;;;;;;;2.72;2.30;;;20.10;99.90;;;;;;4586261;19;24377;-35
2022/08/12 07:58:24;;;;;;;2.58;2.25;;;20.20;99.90;;;;;;4586484;19;24373;-37
2022/08/12 07:59:55;;;;;;;2.70;2.35;;;20.30;99.90;;;;;;4586445;19;24736;-36
2022/08/12 08:01:26;;;;;;;3.67;2.40;;;20.30;99.90;;;;;;4586511;19;24693;-39
2022/08/12 08:02:57;;;;;;;3.17;2.45;;;20.30;99.90;;;;;;4586474;19;24373;-34
2022/08/12 08:06:20;;;;;;;2.60;2.17;;;20.40;99.90;;;;;;4586906;19;24359;-42
2022/08/12 08:07:52;;;;;;;3.10;2.60;;;20.50;99.90;;;;;;4586645;19;24411;-36
2022/08/12 08:09:23;;;;;;;3.10;2.60;;;20.50;99.90;;;;;;4586537;19;24444;-34
2022/08/12 08:12:54;;;;;;;2.78;2.30;;;20.50;99.90;;;;;;4586055;19;24419;-36
2022/08/12 08:14:27;;;;;;;3.60;2.30;;;20.60;99.90;;;;;;4586504;19;24385;-40
2022/08/12 08:15:59;;;;;;;3.42;2.83;;;20.60;99.90;;;;;;4586172;19;24397;-35
2022/08/12 08:17:30;;;;;;;3.70;2.33;;;20.60;99.90;;;;;;4586035;19;24381;-42
2022/08/12 08:19:01;;;;;;;3.20;2.70;;;20.50;99.90;;;;;;4586326;19;24373;-35
2022/08/12 08:20:35;;;;;;;3.30;2.30;;;20.50;99.90;;;;;;4586187;19;24547;-37
2022/08/12 08:22:09;;;;;;;2.83;2.40;;;20.50;99.90;;;;;;4586266;19;24405;-34
2022/08/12 08:25:32;;;;;;;3.22;2.65;;;20.60;99.90;;;;;;4592758;19;24369;-37
2022/08/12 08:27:03;;;;;;;3.30;2.70;;;20.50;99.90;;;;;;4592629;19;24464;-37
2022/08/12 08:28:35;;;;;;;3.70;2.45;;;20.60;99.90;;;;;;4591269;19;24455;-41
2022/08/12 08:30:10;;;;;;;3.15;2.30;;;20.60;99.90;;;;;;4592515;19;24369;-39
2022/08/12 08:31:44;;;;;;;3.33;2.78;;;20.70;99.90;;;;;;4592916;19;24680;-37
2022/08/12 08:33:16;;;;;;;3.47;2.72;;;20.70;99.90;;;;;;4592891;19;24444;-34
2022/08/12 08:34:48;;;;;;;2.72;2.28;;;20.70;99.90;;;;;;4591523;19;24472;-35
2022/08/12 08:36:20;;;;;;;2.90;2.20;;;20.70;99.90;;;;;;4591697;19;24377;-42
2022/08/12 08:37:51;;;;;;;2.97;2.50;;;20.80;99.90;;;;;;4592210;19;24381;-34
2022/08/12 08:39:26;;;;;;;3.63;2.50;;;20.80;99.90;;;;;;4593172;19;24360;-35
2022/08/12 08:42:47;;;;;;;3.03;2.28;;;21.00;99.90;;;;;;4592446;19;24678;-34
2022/08/12 08:44:19;;;;;;;2.60;2.33;;;21.10;99.90;;;;;;4592428;19;24689;-42
2022/08/12 08:45:56;;;;;;;3.20;2.15;;;21.10;99.90;;;;;;4591684;19;24369;-36
2022/08/12 08:47:28;;;;;;;2.88;2.22;;;21.20;99.90;;;;;;4591657;19;25126;-40
2022/08/12 08:49:00;;;;;;;2.78;2.22;;;21.30;99.90;;;;;;4591904;19;24708;-36
2022/08/12 08:50:32;;;;;;;2.80;2.15;;;21.40;99.90;;;;;;4590155;19;24405;-36
2022/08/12 08:52:04;;;;;;;2.33;2.05;;;21.40;99.90;;;;;;4590624;19;24393;-39
2022/08/12 08:53:40;;;;;;;2.33;2.10;;;21.40;99.90;;;;;;4592442;19;24377;-35
2022/08/12 08:55:15;;;;;;;3.38;2.50;;;21.50;99.90;;;;;;4592279;19;24366;-35
2022/08/12 08:56:49;;;;;;;3.58;2.15;;;21.50;99.90;;;;;;4590950;19;24458;-37
2022/08/12 08:58:21;;;;;;;5.72;5.13;;;21.60;99.90;;;;;;4589636;19;24393;-41
2022/08/12 08:59:52;;;;;;;2.63;1.97;;;21.50;99.90;;;;;;4592253;19;24415;-35
2022/08/12 09:01:23;;;;;;;2.33;2.00;;;21.60;99.90;;;;;;4592154;19;24427;-34
2022/08/12 09:02:54;;;;;;;3.17;2.60;;;21.60;99.90;;;;;;4592432;19;24389;-34
2022/08/12 09:04:25;;;;;;;2.42;2.10;;;21.60;99.90;;;;;;4592941;19;24373;-36
2022/08/12 09:05:57;;;;;;;3.63;2.53;;;21.60;99.90;;;;;;4590664;19;24704;-43
2022/08/12 09:07:28;;;;;;;2.75;2.30;;;21.70;99.90;;;;;;4590325;19;24385;-40
2022/08/12 09:08:59;;;;;;;5.20;2.53;;;21.60;99.90;;;;;;4590431;19;24385;-39
2022/08/12 09:10:32;;;;;;;3.17;2.38;;;21.40;99.90;;;;;;4590932;19;24393;-41
2022/08/12 09:13:54;;;;;;;2.83;2.20;;;21.20;99.90;;;;;;4591442;19;24724;-36
2022/08/12 09:15:26;;;;;;;4.15;2.50;;;21.10;99.90;;;;;;4591022;19;24369;-36
2022/08/12 09:16:57;;;;;;;4.88;4.38;;;21.00;99.90;;;;;;4591095;19;24376;-41
2022/08/12 09:18:30;;;;;;;4.20;3.40;;;21.00;99.90;;;;;;4590231;19;24397;-42
2022/08/12 09:20:01;;;;;;;3.60;2.83;;;21.00;99.90;;;;;;4591121;19;24373;-36
2022/08/12 09:21:32;;;;;;;3.50;2.50;;;21.00;99.90;;;;;;4591587;19;24432;-37
2022/08/12 09:23:12;;;;;;;4.50;2.95;;;21.00;99.90;;;;;;4591698;19;24381;-41
2022/08/12 09:24:44;;;;;;;3.05;2.45;;;21.00;99.90;;;;;;4591343;19;24385;-36
2022/08/12 09:26:17;;;;;;;3.85;2.60;;;20.90;99.90;;;;;;4591317;19;24381;-40
2022/08/12 09:27:50;;;;;;;3.13;2.60;;;20.90;99.90;;;;;;4589116;19;24397;-39
2022/08/12 09:29:21;;;;;;;4.38;2.88;;;20.90;99.90;;;;;;4591051;19;24431;-37
2022/08/12 09:30:53;;;;;;;4.13;2.90;;;20.90;99.90;;;;;;4590099;19;24381;-34
2022/08/12 09:32:26;;;;;;;4.93;3.30;;;20.90;99.90;;;;;;4590746;19;24381;-39
2022/08/12 09:33:59;;;;;;;4.88;2.95;;;20.90;99.90;;;;;;4590046;19;24456;-37
2022/08/12 09:35:32;;;;;;;5.40;3.00;;;20.90;99.90;;;;;;4591188;19;24377;-38
2022/08/12 09:37:03;;;;;;;3.80;2.65;;;20.90;99.90;;;;;;4589806;19;24393;-38
2022/08/12 09:38:34;;;;;;;3.15;2.67;;;20.90;99.90;;;;;;4590954;19;24377;-37
2022/08/12 09:40:06;;;;;;;2.85;2.42;;;20.90;99.90;;;;;;4589843;19;24432;-36
2022/08/12 09:41:41;;;;;;;3.35;2.58;;;20.90;99.90;;;;;;4590234;19;24389;-34
2022/08/12 09:45:22;;;;;;;3.53;2.50;;;20.90;99.90;;;;;;4590568;19;24381;-33
2022/08/12 09:46:53;;;;;;;3.08;2.60;;;20.90;99.90;;;;;;4589435;19;24992;-39
2022/08/12 09:48:25;;;;;;;3.67;2.58;;;20.90;99.90;;;;;;4589429;19;24448;-34
2022/08/12 09:49:56;;;;;;;3.33;2.58;;;20.90;99.90;;;;;;4590683;19;24452;-38
2022/08/12 09:51:32;;;;;;;3.28;2.55;;;20.90;99.90;;;;;;4589083;19;24385;-36
2022/08/12 09:53:14;;;;;;;3.95;2.55;;;20.90;99.90;;;;;;4588035;19;24389;-34
2022/08/12 09:54:45;;;;;;;3.65;2.67;;;20.90;99.90;;;;;;4588933;19;24460;-34
2022/08/12 09:56:17;;;;;;;3.15;2.60;;;21.00;99.90;;;;;;4589573;19;24393;-35
2022/08/12 09:57:49;;;;;;;4.07;2.30;;;21.00;99.90;;;;;;4589838;19;24414;-38
2022/08/12 09:59:20;;;;;;;3.50;2.78;;;21.00;99.90;;;;;;4590422;19;24411;-35
2022/08/12 10:00:53;;;;;;;2.90;2.53;;;21.00;99.90;;;;;;4590559;19;24385;-36
2022/08/12 10:02:25;;;;;;;2.38;2.17;;;21.00;99.90;;;;;;4590858;19;24697;-38
2022/08/12 10:03:57;;;;;;;3.22;2.30;;;21.00;99.90;;;;;;4589860;19;24369;-35
2022/08/12 10:05:37;;;;;;;3.13;2.60;;;21.00;99.90;;;;;;4589460;19;24377;-38
2022/08/12 10:07:09;;;;;;;2.90;2.60;;;21.00;99.90;;;;;;4588667;19;24783;-39
2022/08/12 10:08:40;;;;;;;2.80;2.50;;;21.00;99.90;;;;;;4591801;19;24443;-37